createdAt,value
2022-11-29T00:01:00.021Z,13.90
2022-11-29T00:03:28.548Z,13.57
2022-11-29T00:05:56.546Z,13.03
2022-11-29T00:08:25.580Z,12.30
2022-11-29T00:10:53.609Z,11.83
2022-11-29T00:13:21.437Z,11.73
2022-11-29T00:15:49.011Z,11.27
2022-11-29T00:18:17.026Z,12.27
2022-11-29T00:20:44.652Z,12.13
2022-11-29T00:23:12.379Z,12.50
2022-11-29T00:25:41.554Z,12.40
2022-11-29T00:28:09.300Z,9.83
2022-11-29T00:30:37.092Z,8.60
2022-11-29T00:33:04.774Z,7.73
2022-11-29T00:35:32.945Z,7.87
2022-11-29T00:38:00.580Z,8.13
2022-11-29T00:40:28.440Z,8.57
2022-11-29T00:42:57.498Z,7.80
2022-11-29T00:45:25.258Z,8.47
2022-11-29T00:47:52.853Z,8.60
2022-11-29T00:50:20.411Z,8.30
2022-11-29T00:52:48.181Z,9.13
2022-11-29T00:55:16.088Z,9.67
2022-11-29T00:57:43.779Z,10.97
2022-11-29T01:00:14.289Z,11.67
2022-11-29T01:02:42.333Z,12.30
2022-11-29T01:05:10.496Z,12.77
2022-11-29T01:07:38.148Z,11.47
2022-11-29T01:10:07.310Z,12.43
2022-11-29T01:12:37.403Z,11.90
2022-11-29T01:15:05.540Z,12.47
2022-11-29T01:17:35.886Z,12.73
2022-11-29T01:20:04.218Z,12.77
2022-11-29T01:22:32.110Z,12.57
2022-11-29T01:24:59.794Z,12.23
2022-11-29T01:27:27.582Z,11.40
2022-11-29T01:29:55.247Z,12.53
2022-11-29T01:32:22.963Z,12.80
2022-11-29T01:34:51.917Z,12.03
2022-11-29T01:37:19.583Z,12.60
2022-11-29T01:39:47.196Z,10.90
2022-11-29T01:42:15.382Z,10.37
2022-11-29T01:45:06.440Z,9.00
2022-11-29T01:47:34.573Z,8.43
2022-11-29T01:50:04.346Z,7.13
2022-11-29T01:52:33.880Z,7.30
2022-11-29T01:55:05.766Z,7.33
2022-11-29T01:57:35.173Z,7.60
2022-11-29T02:00:08.551Z,7.10
2022-11-29T02:02:38.310Z,6.90
2022-11-29T02:05:08.876Z,6.43
2022-11-29T02:07:36.913Z,6.73
2022-11-29T02:10:05.532Z,6.30
2022-11-29T02:12:41.233Z,6.63
2022-11-29T02:15:18.334Z,6.63
2022-11-29T02:17:55.824Z,6.80
2022-11-29T02:20:52.494Z,6.87
2022-11-29T02:24:01.457Z,6.73
2022-11-29T02:26:43.593Z,7.40
2022-11-29T02:29:33.071Z,6.93
2022-11-29T02:32:34.445Z,6.87
2022-11-29T02:35:09.308Z,7.40
2022-11-29T02:37:55.513Z,7.67
2022-11-29T02:40:36.415Z,7.93
2022-11-29T02:43:37.991Z,9.20
2022-11-29T02:46:17.164Z,9.93
2022-11-29T02:48:55.769Z,9.77
2022-11-29T02:51:29.165Z,10.10
2022-11-29T02:54:00.955Z,10.10
2022-11-29T02:56:33.254Z,9.37
2022-11-29T02:59:04.818Z,9.43
2022-11-29T03:01:37.014Z,9.10
2022-11-29T03:04:11.142Z,9.07
2022-11-29T03:06:44.936Z,9.03
2022-11-29T03:09:20.405Z,9.47
2022-11-29T03:11:52.615Z,9.03
2022-11-29T03:14:25.433Z,8.30
2022-11-29T03:17:01.867Z,7.63
2022-11-29T03:19:40.834Z,8.83
2022-11-29T03:22:13.516Z,8.83
2022-11-29T03:24:47.021Z,9.13
2022-11-29T03:27:18.585Z,9.40
2022-11-29T03:29:49.968Z,9.43
2022-11-29T03:32:22.929Z,9.20
2022-11-29T03:34:59.013Z,9.17
2022-11-29T03:37:31.123Z,9.83
2022-11-29T03:40:04.167Z,9.17
2022-11-29T03:42:34.655Z,9.07
2022-11-29T03:45:07.125Z,8.57
2022-11-29T03:47:37.249Z,8.93
2022-11-29T03:50:07.442Z,8.70
2022-11-29T03:52:43.982Z,8.63
2022-11-29T03:55:20.388Z,8.53
2022-11-29T03:57:55.745Z,8.53
2022-11-29T04:00:23.747Z,8.80
2022-11-29T04:03:18.250Z,8.70
2022-11-29T04:05:56.315Z,8.27
2022-11-29T04:08:49.420Z,9.07
2022-11-29T04:11:37.274Z,9.50
2022-11-29T04:14:28.989Z,9.80
2022-11-29T04:17:32.411Z,9.33
2022-11-29T04:20:39.077Z,9.10
2022-11-29T04:23:53.101Z,9.43
2022-11-29T04:26:35.079Z,9.57
2022-11-29T04:29:12.492Z,9.77
2022-11-29T04:31:53.985Z,9.93
2022-11-29T04:34:40.811Z,9.67
2022-11-29T04:37:25.330Z,10.20
2022-11-29T04:40:05.793Z,8.80
2022-11-29T04:42:58.337Z,8.83
2022-11-29T04:45:40.869Z,8.57
2022-11-29T04:48:32.682Z,9.40
2022-11-29T04:51:09.978Z,9.30
2022-11-29T04:53:48.420Z,8.80
2022-11-29T04:56:24.522Z,9.40
2022-11-29T04:58:58.771Z,8.57
2022-11-29T05:01:33.245Z,9.70
2022-11-29T05:04:04.297Z,9.13
2022-11-29T05:06:36.493Z,8.40
2022-11-29T05:09:11.532Z,8.67
2022-11-29T05:11:49.230Z,8.73
2022-11-29T05:14:23.725Z,8.57
2022-11-29T05:16:55.522Z,8.20
2022-11-29T05:19:47.966Z,8.47
2022-11-29T05:22:24.506Z,8.57
2022-11-29T05:24:57.540Z,9.07
2022-11-29T05:27:36.530Z,8.70
2022-11-29T05:30:07.477Z,12.10
2022-11-29T05:32:37.265Z,11.40
2022-11-29T05:35:27.814Z,9.93
2022-11-29T05:37:58.142Z,10.07
2022-11-29T05:40:49.541Z,9.50
2022-11-29T05:43:31.393Z,8.57
2022-11-29T05:46:04.053Z,8.00
2022-11-29T05:48:35.829Z,8.63
2022-11-29T05:51:17.400Z,8.77
2022-11-29T05:53:56.616Z,8.70
2022-11-29T05:56:30.534Z,7.60
2022-11-29T05:59:01.750Z,8.70
2022-11-29T06:01:33.294Z,9.10
2022-11-29T06:04:07.997Z,8.83
2022-11-29T06:06:44.697Z,8.83
2022-11-29T06:09:17.184Z,8.50
2022-11-29T06:11:46.551Z,8.90
2022-11-29T06:14:28.498Z,8.87
2022-11-29T06:17:07.299Z,9.13
2022-11-29T06:19:46.647Z,8.87
2022-11-29T06:22:24.776Z,9.70
2022-11-29T06:25:01.442Z,8.80
2022-11-29T06:27:40.728Z,9.20
2022-11-29T06:30:12.658Z,9.77
2022-11-29T06:32:46.176Z,11.30
2022-11-29T06:35:35.325Z,10.40
2022-11-29T06:38:07.044Z,10.43
2022-11-29T06:40:35.165Z,11.03
2022-11-29T06:43:03.257Z,11.03
2022-11-29T06:45:33.287Z,10.60
2022-11-29T06:48:03.108Z,10.10
2022-11-29T06:50:36.092Z,10.00
2022-11-29T06:53:09.002Z,10.67
2022-11-29T06:55:42.336Z,10.60
2022-11-29T06:58:16.182Z,9.73
2022-11-29T07:00:51.584Z,9.87
2022-11-29T07:03:30.197Z,10.47
2022-11-29T07:05:58.206Z,10.20
2022-11-29T07:08:26.529Z,9.87
2022-11-29T07:10:55.641Z,10.23
2022-11-29T07:13:23.798Z,10.53
2022-11-29T07:15:59.927Z,11.40
2022-11-29T07:18:32.242Z,11.70
2022-11-29T07:21:07.119Z,12.63
2022-11-29T07:23:37.125Z,11.60
2022-11-29T07:26:17.276Z,11.57
2022-11-29T07:28:52.911Z,12.30
2022-11-29T07:31:27.437Z,12.03
2022-11-29T07:34:03.348Z,11.60
2022-11-29T07:36:35.706Z,12.27
2022-11-29T07:39:13.529Z,11.80
2022-11-29T07:41:44.745Z,12.60
2022-11-29T07:44:17.922Z,12.40
2022-11-29T07:46:47.026Z,11.23
2022-11-29T07:49:14.804Z,12.73
2022-11-29T07:51:42.512Z,12.80
2022-11-29T07:54:10.820Z,13.50
2022-11-29T07:56:38.373Z,11.63
2022-11-29T07:59:10.912Z,10.77
2022-11-29T08:01:38.609Z,11.47
2022-11-29T08:04:07.614Z,10.73
2022-11-29T08:06:35.435Z,11.37
2022-11-29T08:09:03.395Z,10.70
2022-11-29T08:11:31.159Z,11.30
2022-11-29T08:13:59.002Z,11.43
2022-11-29T08:16:26.948Z,11.53
2022-11-29T08:18:54.805Z,11.47
2022-11-29T08:21:23.776Z,11.70
2022-11-29T08:23:51.952Z,12.00
2022-11-29T08:26:20.868Z,11.70
2022-11-29T08:28:52.092Z,10.07
2022-11-29T08:31:20.883Z,8.73
2022-11-29T08:33:48.679Z,8.67
2022-11-29T08:36:18.190Z,9.07
2022-11-29T08:38:47.301Z,8.60
2022-11-29T08:41:15.939Z,8.33
2022-11-29T08:43:44.109Z,8.43
2022-11-29T08:46:18.082Z,8.37
2022-11-29T08:48:46.318Z,7.63
2022-11-29T08:51:14.488Z,7.50
2022-11-29T08:53:45.983Z,8.10
2022-11-29T08:57:04.320Z,8.07
2022-11-29T08:59:06.593Z,8.53
2022-11-29T09:01:34.285Z,8.77
2022-11-29T09:04:03.504Z,8.83
2022-11-29T09:06:32.831Z,9.23
2022-11-29T09:09:01.897Z,8.00
2022-11-29T09:11:31.654Z,9.23
2022-11-29T09:14:01.092Z,8.67
2022-11-29T09:16:30.868Z,8.97
2022-11-29T09:18:58.544Z,9.20
2022-11-29T09:21:27.470Z,8.70
2022-11-29T09:23:58.693Z,8.30
2022-11-29T09:26:29.103Z,7.50
2022-11-29T09:29:01.160Z,8.60
2022-11-29T09:31:29.573Z,8.20
2022-11-29T09:33:57.647Z,8.17
2022-11-29T09:36:28.941Z,7.50
2022-11-29T09:38:57.083Z,8.40
2022-11-29T09:41:46.971Z,8.27
2022-11-29T09:44:22.523Z,7.53
2022-11-29T09:46:58.656Z,7.80
2022-11-29T09:49:52.707Z,7.40
2022-11-29T09:52:28.606Z,7.60
2022-11-29T09:55:01.612Z,7.23
2022-11-29T09:57:29.669Z,6.97
2022-11-29T10:00:00.502Z,7.47
2022-11-29T10:02:33.941Z,7.23
2022-11-29T10:05:04.594Z,7.43
2022-11-29T10:07:36.161Z,7.43
2022-11-29T10:10:08.442Z,7.90
2022-11-29T10:12:39.197Z,7.37
2022-11-29T10:15:13.801Z,7.83
2022-11-29T10:17:44.391Z,8.00
2022-11-29T10:20:15.492Z,7.60
2022-11-29T10:22:49.280Z,8.23
2022-11-29T10:25:21.514Z,9.07
2022-11-29T10:27:49.295Z,9.17
2022-11-29T10:30:18.966Z,9.20
2022-11-29T10:32:48.085Z,8.97
2022-11-29T10:35:17.585Z,8.97
2022-11-29T10:38:01.556Z,8.17
2022-11-29T10:40:35.605Z,8.90
2022-11-29T10:43:03.578Z,8.20
2022-11-29T10:45:34.955Z,8.87
2022-11-29T10:48:04.562Z,8.60
2022-11-29T10:50:34.833Z,9.27
2022-11-29T10:53:06.150Z,8.97
2022-11-29T10:55:37.845Z,9.00
2022-11-29T10:58:13.691Z,8.60
2022-11-29T11:00:48.556Z,10.20
2022-11-29T11:03:17.768Z,9.63
2022-11-29T11:05:57.912Z,9.60
2022-11-29T11:08:26.432Z,10.10
2022-11-29T11:11:01.236Z,9.87
2022-11-29T11:13:31.437Z,10.17
2022-11-29T11:16:09.594Z,9.97
2022-11-29T11:18:38.435Z,10.47
2022-11-29T11:21:09.515Z,9.83
2022-11-29T11:23:42.730Z,10.33
2022-11-29T11:26:13.136Z,10.77
2022-11-29T11:28:44.772Z,10.63
2022-11-29T11:31:14.400Z,10.87
2022-11-29T11:33:43.030Z,10.17
2022-11-29T11:36:14.001Z,10.83
2022-11-29T11:38:43.374Z,9.50
2022-11-29T11:41:19.171Z,11.23
2022-11-29T11:43:55.821Z,10.00
2022-11-29T11:46:25.070Z,8.63
2022-11-29T11:48:52.799Z,9.47
2022-11-29T11:51:23.860Z,9.80
2022-11-29T11:53:53.387Z,9.10
2022-11-29T11:56:21.773Z,10.50
2022-11-29T11:58:51.740Z,9.10
2022-11-29T12:01:27.371Z,9.00
2022-11-29T12:03:59.235Z,9.43
2022-11-29T12:06:30.274Z,9.80
2022-11-29T12:09:04.664Z,9.60
2022-11-29T12:11:37.883Z,10.37
2022-11-29T12:14:06.748Z,9.50
2022-11-29T12:16:37.442Z,8.87
2022-11-29T12:19:13.706Z,9.27
2022-11-29T12:21:44.945Z,9.20
2022-11-29T12:24:20.068Z,8.87
2022-11-29T12:26:56.996Z,9.17
2022-11-29T12:29:26.777Z,9.67
2022-11-29T12:32:03.453Z,8.80
2022-11-29T12:34:45.797Z,9.30
2022-11-29T12:37:19.826Z,9.70
2022-11-29T12:39:58.861Z,9.93
2022-11-29T12:42:41.522Z,9.73
2022-11-29T12:45:26.136Z,9.43
2022-11-29T12:48:04.578Z,10.10
2022-11-29T12:50:39.349Z,10.20
2022-11-29T12:53:16.692Z,10.00
2022-11-29T12:55:50.014Z,10.30
2022-11-29T12:58:23.115Z,10.30
2022-11-29T13:00:55.654Z,9.57
2022-11-29T13:03:29.994Z,10.67
2022-11-29T13:06:07.474Z,10.10
2022-11-29T13:08:47.572Z,9.00
2022-11-29T13:11:18.384Z,9.80
2022-11-29T13:13:48.714Z,9.67
2022-11-29T13:16:31.271Z,9.50
2022-11-29T13:19:03.408Z,9.03
2022-11-29T13:21:33.589Z,9.47
2022-11-29T13:24:09.819Z,9.57
2022-11-29T13:26:39.089Z,9.07
2022-11-29T13:29:08.413Z,9.47
2022-11-29T13:31:36.422Z,9.20
2022-11-29T13:34:10.119Z,9.30
2022-11-29T13:36:49.467Z,9.40
2022-11-29T13:39:30.746Z,8.30
2022-11-29T13:42:06.598Z,8.90
2022-11-29T13:44:38.160Z,7.77
2022-11-29T13:47:08.238Z,9.10
2022-11-29T13:49:54.784Z,8.30
2022-11-29T13:52:39.654Z,8.50
2022-11-29T13:55:28.580Z,8.60
2022-11-29T13:58:16.269Z,7.73
2022-11-29T14:00:50.382Z,7.60
2022-11-29T14:03:28.424Z,7.77
2022-11-29T14:06:09.756Z,7.13
2022-11-29T14:09:10.185Z,7.33
2022-11-29T14:11:30.215Z,7.50
2022-11-29T14:14:02.213Z,8.60
2022-11-29T14:16:33.741Z,8.20
2022-11-29T14:19:19.508Z,8.17
2022-11-29T14:22:31.347Z,8.10
2022-11-29T14:25:21.685Z,7.13
2022-11-29T14:28:08.044Z,7.93
2022-11-29T14:30:50.357Z,7.37
2022-11-29T14:33:27.945Z,7.67
2022-11-29T14:36:09.590Z,7.30
2022-11-29T14:38:44.328Z,7.47
2022-11-29T14:41:23.298Z,7.03
2022-11-29T14:43:50.891Z,6.30
2022-11-29T14:46:29.533Z,7.97
2022-11-29T14:49:01.929Z,7.20
2022-11-29T14:51:31.676Z,7.30
2022-11-29T14:54:07.485Z,7.10
2022-11-29T14:56:42.349Z,7.40
2022-11-29T14:59:48.816Z,7.53
2022-11-29T15:02:27.024Z,7.20
2022-11-29T15:04:56.884Z,7.43
2022-11-29T15:07:28.553Z,8.73
2022-11-29T15:09:58.596Z,10.40
2022-11-29T15:12:29.331Z,11.10
2022-11-29T15:15:07.664Z,11.27
2022-11-29T15:17:42.605Z,11.33
2022-11-29T15:20:37.502Z,10.07
2022-11-29T15:23:07.247Z,10.20
2022-11-29T15:25:36.445Z,8.97
2022-11-29T15:28:07.203Z,9.80
2022-11-29T15:30:36.462Z,10.03
2022-11-29T15:33:06.257Z,9.23
2022-11-29T15:35:35.146Z,9.90
2022-11-29T15:38:03.742Z,9.93
2022-11-29T15:40:35.505Z,10.80
2022-11-29T15:43:12.785Z,11.57
2022-11-29T15:45:40.482Z,11.23
2022-11-29T15:48:13.875Z,13.27
2022-11-29T15:50:45.958Z,12.33
2022-11-29T15:53:18.531Z,13.77
2022-11-29T15:55:49.441Z,14.27
2022-11-29T15:58:18.367Z,13.50
2022-11-29T16:00:49.590Z,15.37
2022-11-29T16:03:21.226Z,14.20
2022-11-29T16:05:51.410Z,16.20
2022-11-29T16:08:20.553Z,14.70
2022-11-29T16:10:52.531Z,15.07
2022-11-29T16:13:39.167Z,15.80
2022-11-29T16:16:18.027Z,15.47
2022-11-29T16:18:46.950Z,14.43
2022-11-29T16:21:26.594Z,15.27
2022-11-29T16:23:54.908Z,14.43
2022-11-29T16:26:24.151Z,14.37
2022-11-29T16:28:54.678Z,15.70
2022-11-29T16:31:23.788Z,15.13
2022-11-29T16:33:53.589Z,14.60
2022-11-29T16:36:24.058Z,15.20
2022-11-29T16:38:53.645Z,15.17
2022-11-29T16:41:33.215Z,15.67
2022-11-29T16:44:03.293Z,15.07
2022-11-29T16:46:36.404Z,13.97
2022-11-29T16:49:34.789Z,15.13
2022-11-29T16:52:03.114Z,13.70
2022-11-29T16:54:33.924Z,15.67
2022-11-29T16:57:04.897Z,15.13
2022-11-29T16:59:35.401Z,13.77
2022-11-29T17:02:03.122Z,14.07
2022-11-29T17:04:30.854Z,14.33
2022-11-29T17:06:58.480Z,14.17
2022-11-29T17:09:27.889Z,13.80
2022-11-29T17:11:56.119Z,13.77
2022-11-29T17:14:24.086Z,12.40
2022-11-29T17:16:53.209Z,12.80
2022-11-29T17:19:25.157Z,12.70
2022-11-29T17:21:53.576Z,12.67
2022-11-29T17:24:22.495Z,13.47
2022-11-29T17:26:50.127Z,12.13
2022-11-29T17:29:18.490Z,11.97
2022-11-29T17:31:47.043Z,11.33
2022-11-29T17:34:16.070Z,11.80
2022-11-29T17:36:45.040Z,12.00
2022-11-29T17:39:12.757Z,13.77
2022-11-29T17:41:40.369Z,13.20
2022-11-29T17:44:08.149Z,12.10
2022-11-29T17:46:37.101Z,11.50
2022-11-29T17:49:06.947Z,11.90
2022-11-29T17:51:53.923Z,12.53
2022-11-29T17:54:21.933Z,11.87
2022-11-29T17:56:49.905Z,11.77
2022-11-29T17:59:17.524Z,11.17
2022-11-29T18:01:47.009Z,10.63
2022-11-29T18:04:14.924Z,10.63
2022-11-29T18:06:45.772Z,11.87
2022-11-29T18:09:13.836Z,12.37
2022-11-29T18:11:48.166Z,11.53
2022-11-29T18:14:18.163Z,12.70
2022-11-29T18:16:46.366Z,13.90
2022-11-29T18:19:15.335Z,14.07
2022-11-29T18:21:44.437Z,13.30
2022-11-29T18:24:12.380Z,14.27
2022-11-29T18:26:40.442Z,12.50
2022-11-29T18:29:08.989Z,13.27
2022-11-29T18:31:37.895Z,13.13
2022-11-29T18:34:09.501Z,13.63
2022-11-29T18:36:39.142Z,13.93
2022-11-29T18:39:09.667Z,14.07
2022-11-29T18:41:38.224Z,13.43
2022-11-29T18:44:07.138Z,15.20
2022-11-29T18:46:36.814Z,14.10
2022-11-29T18:49:05.476Z,13.10
2022-11-29T18:51:33.193Z,13.30
2022-11-29T18:54:01.139Z,13.80
2022-11-29T18:59:18.841Z,14.80
2022-11-29T19:01:48.026Z,15.40
2022-11-29T19:04:17.685Z,14.47
2022-11-29T19:06:45.778Z,14.60
2022-11-29T19:09:14.574Z,14.57
2022-11-29T19:11:42.199Z,13.70
2022-11-29T19:14:12.560Z,15.93
2022-11-29T19:16:44.138Z,16.47
2022-11-29T19:19:12.018Z,15.40
2022-11-29T19:21:40.669Z,17.43
2022-11-29T19:24:13.749Z,15.00
2022-11-29T19:26:44.242Z,14.50
2022-11-29T19:29:12.108Z,15.93
2022-11-29T19:31:41.231Z,14.53
2022-11-29T19:34:09.047Z,15.63
2022-11-29T19:36:42.412Z,14.93
2022-11-29T19:39:10.799Z,14.50
2022-11-29T19:41:38.408Z,16.23
2022-11-29T19:44:07.536Z,15.33
2022-11-29T19:46:36.559Z,16.13
2022-11-29T19:49:07.678Z,16.10
2022-11-29T19:51:35.730Z,16.20
2022-11-29T19:54:05.635Z,17.63
2022-11-29T19:56:33.757Z,15.90
2022-11-29T19:59:01.334Z,16.13
2022-11-29T20:01:37.716Z,16.87
2022-11-29T20:04:19.974Z,16.23
2022-11-29T20:07:07.861Z,15.53
2022-11-29T20:09:35.751Z,15.90
2022-11-29T20:12:03.462Z,15.40
2022-11-29T20:14:31.106Z,16.27
2022-11-29T20:16:58.744Z,16.63
2022-11-29T20:19:27.670Z,16.40
2022-11-29T20:21:55.315Z,16.13
2022-11-29T20:24:23.108Z,15.47
2022-11-29T20:26:51.130Z,16.17
2022-11-29T20:29:19.263Z,16.57
2022-11-29T20:31:50.746Z,16.67
2022-11-29T20:34:18.985Z,15.70
2022-11-29T20:37:06.760Z,16.43
2022-11-29T20:39:39.092Z,18.30
2022-11-29T20:42:20.335Z,16.20
2022-11-29T20:44:51.557Z,15.67
2022-11-29T20:47:21.214Z,16.10
2022-11-29T20:49:49.110Z,16.67
2022-11-29T20:52:29.938Z,16.17
2022-11-29T20:54:57.568Z,16.57
2022-11-29T20:57:25.197Z,16.97
2022-11-29T20:59:52.774Z,15.97
2022-11-29T21:02:21.316Z,16.07
2022-11-29T21:04:49.148Z,16.03
2022-11-29T21:07:16.921Z,16.40
2022-11-29T21:09:46.320Z,16.57
2022-11-29T21:12:14.754Z,16.90
2022-11-29T21:14:42.979Z,15.97
2022-11-29T21:17:11.201Z,15.33
2022-11-29T21:19:39.993Z,15.37
2022-11-29T21:22:13.692Z,18.10
2022-11-29T21:24:51.881Z,17.73
2022-11-29T21:27:23.531Z,16.67
2022-11-29T21:29:51.922Z,16.53
2022-11-29T21:32:23.582Z,17.87
2022-11-29T21:34:51.391Z,17.80
2022-11-29T21:37:21.209Z,16.90
2022-11-29T21:39:52.056Z,17.00
2022-11-29T21:42:20.360Z,16.50
2022-11-29T21:44:48.330Z,16.93
2022-11-29T21:47:16.183Z,16.97
2022-11-29T21:49:44.058Z,17.40
2022-11-29T21:52:11.662Z,16.53
2022-11-29T21:54:39.854Z,17.77
2022-11-29T21:57:08.948Z,16.87
2022-11-29T21:59:36.635Z,16.50
2022-11-29T22:02:04.612Z,17.07
2022-11-29T22:04:32.309Z,17.80
2022-11-29T22:06:59.904Z,16.47
2022-11-29T22:09:27.586Z,17.67
2022-11-29T22:11:55.266Z,18.20
2022-11-29T22:14:24.304Z,18.63
2022-11-29T22:16:53.523Z,17.43
2022-11-29T22:19:23.030Z,16.67
2022-11-29T22:21:52.277Z,16.90
2022-11-29T22:24:20.960Z,16.90
2022-11-29T22:26:49.687Z,17.73
2022-11-29T22:29:17.609Z,17.87
2022-11-29T22:31:48.091Z,17.67
2022-11-29T22:34:15.890Z,17.37
2022-11-29T22:36:43.638Z,17.00
2022-11-29T22:39:11.350Z,16.67
2022-11-29T22:41:40.218Z,17.80
2022-11-29T22:44:08.297Z,16.03
2022-11-29T22:46:36.343Z,16.50
2022-11-29T22:49:05.520Z,16.67
2022-11-29T22:51:36.143Z,17.50
2022-11-29T22:54:06.148Z,17.90
2022-11-29T22:56:36.088Z,17.30
2022-11-29T22:59:04.631Z,16.70
2022-11-29T23:01:34.124Z,17.70
2022-11-29T23:04:04.710Z,17.57
2022-11-29T23:06:35.307Z,18.00
2022-11-29T23:09:07.055Z,17.37
2022-11-29T23:11:34.644Z,17.80
2022-11-29T23:14:02.402Z,17.17
2022-11-29T23:16:30.683Z,17.73
2022-11-29T23:18:59.610Z,18.63
2022-11-29T23:21:29.186Z,18.70
2022-11-29T23:24:00.753Z,19.13
2022-11-29T23:26:30.391Z,17.80
2022-11-29T23:28:58.221Z,16.57
2022-11-29T23:31:25.844Z,16.53
2022-11-29T23:33:53.573Z,17.50
2022-11-29T23:36:21.207Z,17.47
2022-11-29T23:38:49.430Z,17.23
2022-11-29T23:41:18.670Z,18.07
2022-11-29T23:43:46.324Z,18.57
2022-11-29T23:46:15.700Z,18.90
2022-11-29T23:48:43.420Z,17.87
2022-11-29T23:51:11.711Z,17.53
2022-11-29T23:53:39.829Z,17.63
2022-11-29T23:56:10.778Z,17.57
2022-11-29T23:58:39.810Z,19.53
